Time;durP1;ratioP1;P1;durP2;ratioP2;P2;SDS_P1;SDS_P2;PMS_P1;PMS_P2;Temp;Humidity;BMP_temperature;BMP_pressure;BME280_temperature;BME280_humidity;BME280_pressure;Samples;Min_cycle;Max_cycle;Signal;HPM_P1;HPM_P2
2023/01/02 00:01:51;;;;;;;4.80;1.90;;;11.90;99.90;;;;;;4971621;28;20388;-74
2023/01/02 00:04:17;;;;;;;2.42;1.70;;;11.80;99.90;;;;;;4970492;28;20388;-74
2023/01/02 00:06:42;;;;;;;3.13;1.80;;;11.80;99.90;;;;;;4971167;28;20408;-72
2023/01/02 00:09:08;;;;;;;4.07;2.00;;;11.80;91.60;;;;;;4959859;28;20413;-73
2023/01/02 00:11:34;;;;;;;5.10;2.38;;;11.80;99.90;;;;;;4970275;28;20541;-73
2023/01/02 00:13:59;;;;;;;3.33;2.50;;;11.70;99.90;;;;;;4961519;28;20537;-72
2023/01/02 00:16:25;;;;;;;4.15;1.80;;;11.70;99.90;;;;;;4952021;29;20430;-72
2023/01/02 00:18:50;;;;;;;4.13;1.90;;;11.70;99.90;;;;;;4952103;29;20419;-72
2023/01/02 00:21:17;;;;;;;2.60;1.70;;;11.60;99.90;;;;;;4952027;29;20401;-72
2023/01/02 00:23:43;;;;;;;6.07;2.40;;;11.50;99.90;;;;;;4951246;28;20417;-72
2023/01/02 00:26:09;;;;;;;3.13;2.00;;;11.40;1.00;;;;;;4958187;28;20490;-72
2023/01/02 00:28:35;;;;;;;3.05;2.35;;;11.40;99.90;;;;;;4971402;28;20432;-72
2023/01/02 00:31:13;;;;;;;3.03;2.00;;;11.30;99.90;;;;;;4970695;28;20411;-72
2023/01/02 00:33:38;;;;;;;5.65;2.10;;;11.30;1.00;;;;;;4952060;28;20394;-72
2023/01/02 00:36:10;;;;;;;3.47;2.00;;;11.30;1.00;;;;;;4950919;29;20429;-72
2023/01/02 00:38:36;;;;;;;5.37;1.97;;;11.30;1.00;;;;;;4952109;28;20837;-72
2023/01/02 00:41:02;;;;;;;3.25;1.80;;;11.20;30.40;;;;;;4963963;28;20396;-72
2023/01/02 00:43:28;;;;;;;2.55;1.80;;;11.20;99.90;;;;;;4970397;28;20429;-72
2023/01/02 00:45:54;;;;;;;4.27;1.90;;;11.20;99.90;;;;;;4962347;28;20631;-73
2023/01/02 00:48:20;;;;;;;2.03;1.75;;;11.20;99.90;;;;;;4951944;28;20407;-73
2023/01/02 00:50:45;;;;;;;6.33;2.03;;;11.20;1.00;;;;;;4955612;29;20781;-72
2023/01/02 00:53:11;;;;;;;5.85;1.90;;;11.30;99.90;;;;;;4954912;29;20450;-72
2023/01/02 00:55:37;;;;;;;3.00;1.80;;;11.30;1.00;;;;;;4954055;29;20865;-72
2023/01/02 00:58:03;;;;;;;4.22;2.17;;;11.20;99.90;;;;;;4960099;28;20400;-72
2023/01/02 01:00:28;;;;;;;1.92;1.65;;;11.30;99.90;;;;;;4955205;28;20412;-72
2023/01/02 01:02:56;;;;;;;2.70;1.70;;;11.40;99.90;;;;;;4954927;29;20884;-72
2023/01/02 01:05:21;;;;;;;2.88;1.90;;;11.50;99.90;;;;;;4955308;28;20489;-72
2023/01/02 01:07:47;;;;;;;3.50;1.70;;;11.40;99.90;;;;;;4955221;28;20481;-72
2023/01/02 01:10:12;;;;;;;3.50;2.40;;;11.40;1.00;;;;;;4955262;29;20449;-73
2023/01/02 01:12:38;;;;;;;3.30;2.10;;;11.30;1.00;;;;;;4972633;28;20419;-72
2023/01/02 01:15:05;;;;;;;2.70;1.63;;;11.30;99.90;;;;;;4974364;28;20760;-72
2023/01/02 01:17:31;;;;;;;6.05;1.75;;;11.40;99.90;;;;;;5020225;22;20437;-73
2023/01/02 01:19:57;;;;;;;4.47;1.90;;;11.30;1.00;;;;;;5012423;28;20441;-74
2023/01/02 01:22:22;;;;;;;3.93;1.80;;;11.20;41.40;;;;;;5012134;28;20385;-73
2023/01/02 01:24:48;;;;;;;3.10;2.33;;;11.20;15.90;;;;;;5011731;28;20755;-74
2023/01/02 01:27:13;;;;;;;3.90;2.30;;;11.30;32.70;;;;;;5010852;28;20392;-74
2023/01/02 01:29:39;;;;;;;3.53;2.10;;;11.20;1.00;;;;;;5002862;28;20833;-74
2023/01/02 01:32:04;;;;;;;4.13;1.90;;;11.20;1.00;;;;;;4994568;28;20413;-74
2023/01/02 01:34:30;;;;;;;4.47;2.00;;;11.00;10.20;;;;;;5011350;28;20396;-74
2023/01/02 01:36:55;;;;;;;2.30;1.80;;;11.00;99.90;;;;;;5012324;28;20460;-74
2023/01/02 01:39:21;;;;;;;4.07;1.50;;;11.10;26.50;;;;;;5012104;28;20482;-74
2023/01/02 01:41:46;;;;;;;2.50;1.60;;;11.00;99.90;;;;;;5012099;28;20420;-74
2023/01/02 01:44:46;;;;;;;2.73;1.90;;;10.90;1.00;;;;;;5011013;28;20388;-74
2023/01/02 01:47:34;;;;;;;4.50;1.60;;;11.00;44.10;;;;;;4972784;28;20380;-74
2023/01/02 01:50:18;;;;;;;2.58;2.03;;;10.90;12.30;;;;;;4998708;28;20918;-73
2023/01/02 01:52:54;;;;;;;2.80;1.98;;;10.90;99.90;;;;;;5011042;28;20569;-74
2023/01/02 01:55:25;;;;;;;3.80;2.30;;;10.80;1.00;;;;;;5011805;28;21075;-74
2023/01/02 01:57:57;;;;;;;4.15;2.42;;;10.60;99.90;;;;;;5011761;28;20432;-74
2023/01/02 02:00:23;;;;;;;4.40;1.92;;;10.30;37.60;;;;;;5004530;28;20398;-74
2023/01/02 02:02:53;;;;;;;3.47;1.95;;;10.20;99.90;;;;;;4991486;28;20400;-74
2023/01/02 02:05:22;;;;;;;3.87;2.00;;;10.10;99.90;;;;;;4992056;28;20378;-74
2023/01/02 02:08:01;;;;;;;6.75;2.30;;;10.10;99.90;;;;;;4992012;28;20468;-74
2023/01/02 02:10:27;;;;;;;3.50;1.95;;;10.10;99.90;;;;;;4991977;28;20476;-74
2023/01/02 02:12:52;;;;;;;3.30;2.03;;;10.10;99.90;;;;;;4991515;28;20477;-74
2023/01/02 02:15:25;;;;;;;4.00;1.97;;;9.90;1.00;;;;;;5000921;28;20401;-73
2023/01/02 02:18:23;;;;;;;3.72;2.20;;;9.70;1.00;;;;;;4951276;28;1742573;-74
2023/01/02 02:20:59;;;;;;;5.25;1.90;;;9.70;1.00;;;;;;5012340;28;21233;-74
2023/01/02 02:23:45;;;;;;;2.80;2.00;;;9.80;1.00;;;;;;5011769;28;20779;-74
2023/01/02 02:26:17;;;;;;;4.45;2.20;;;9.80;1.00;;;;;;5012187;28;20748;-74
2023/01/02 02:29:15;;;;;;;3.90;2.03;;;9.70;1.00;;;;;;5009541;28;20415;-72
2023/01/02 02:31:54;;;;;;;6.68;2.25;;;9.60;1.00;;;;;;5012272;28;20507;-72
2023/01/02 02:34:32;;;;;;;3.55;1.90;;;9.40;1.00;;;;;;5011357;28;20385;-72
2023/01/02 02:37:14;;;;;;;3.05;1.98;;;9.50;1.00;;;;;;5011899;28;20381;-72
2023/01/02 02:40:08;;;;;;;2.63;1.50;;;9.60;1.00;;;;;;5009152;28;20412;-72
2023/01/02 02:43:01;;;;;;;2.87;2.07;;;9.70;1.00;;;;;;4991585;28;20464;-70
2023/01/02 02:45:59;;;;;;;4.35;2.03;;;9.80;1.00;;;;;;4977738;28;20412;-71
2023/01/02 02:48:34;;;;;;;3.40;1.60;;;9.90;1.00;;;;;;4991152;28;20399;-72
2023/01/02 02:51:06;;;;;;;3.60;2.03;;;9.80;1.00;;;;;;4991990;28;20401;-72
2023/01/02 02:53:41;;;;;;;2.30;1.63;;;9.40;1.00;;;;;;4991462;28;20417;-72
2023/01/02 02:56:10;;;;;;;2.60;1.40;;;9.40;1.00;;;;;;4998850;28;20806;-72
2023/01/02 02:58:37;;;;;;;3.33;1.65;;;9.50;1.00;;;;;;5001793;28;20506;-72
2023/01/02 03:01:10;;;;;;;3.30;1.70;;;9.60;1.00;;;;;;4991888;28;20386;-72
2023/01/02 03:03:36;;;;;;;3.93;1.50;;;9.70;1.00;;;;;;4991385;28;20417;-72
2023/01/02 03:06:10;;;;;;;4.50;1.90;;;9.60;1.00;;;;;;4991641;28;20401;-73
2023/01/02 03:09:10;;;;;;;3.28;1.55;;;9.50;1.00;;;;;;4995623;28;20397;-73
2023/01/02 03:11:46;;;;;;;2.90;1.60;;;9.60;1.00;;;;;;4970866;28;20412;-73
2023/01/02 03:14:26;;;;;;;1.98;1.33;;;9.50;1.00;;;;;;4971969;28;20384;-73
2023/01/02 03:17:00;;;;;;;4.53;1.80;;;9.50;1.00;;;;;;4972012;28;20400;-72
2023/01/02 03:19:49;;;;;;;2.33;1.67;;;9.60;1.00;;;;;;4972455;28;20385;-72
2023/01/02 03:22:19;;;;;;;3.17;2.10;;;9.50;1.00;;;;;;4991130;28;20416;-73
2023/01/02 03:24:50;;;;;;;3.60;1.70;;;9.50;1.00;;;;;;5010566;28;20743;-72
2023/01/02 03:27:21;;;;;;;4.00;1.70;;;9.50;1.00;;;;;;5007467;28;20423;-71
2023/01/02 03:29:53;;;;;;;3.70;1.80;;;9.60;1.00;;;;;;4990230;28;20390;-73
2023/01/02 03:32:30;;;;;;;3.30;1.70;;;9.60;1.00;;;;;;4991421;28;20403;-72
2023/01/02 03:34:59;;;;;;;4.70;1.60;;;9.50;1.00;;;;;;4991188;28;20397;-73
2023/01/02 03:37:29;;;;;;;4.55;1.73;;;9.60;1.00;;;;;;4991151;28;20398;-73
2023/01/02 03:39:57;;;;;;;4.55;1.63;;;9.70;1.00;;;;;;4996082;28;20467;-73
2023/01/02 03:42:34;;;;;;;2.47;1.77;;;9.70;1.00;;;;;;5010420;28;20392;-72
2023/01/02 03:45:16;;;;;;;3.30;1.65;;;9.80;1.00;;;;;;4992326;28;20402;-72
2023/01/02 03:47:55;;;;;;;1.88;1.30;;;9.80;1.00;;;;;;4991017;28;20393;-72
2023/01/02 03:50:42;;;;;;;3.50;1.50;;;9.70;1.00;;;;;;4989762;28;20972;-72
2023/01/02 03:53:07;;;;;;;3.10;1.80;;;9.70;1.00;;;;;;4990296;28;20433;-73
2023/01/02 03:55:36;;;;;;;3.90;1.83;;;9.60;1.00;;;;;;4994033;28;20393;-72
2023/01/02 03:58:28;;;;;;;4.07;1.77;;;9.50;1.00;;;;;;5010513;28;20395;-72
2023/01/02 04:01:05;;;;;;;4.30;1.65;;;9.50;1.00;;;;;;5009201;28;20400;-72
2023/01/02 04:03:40;;;;;;;2.15;1.80;;;9.50;1.00;;;;;;4995156;28;20761;-72
2023/01/02 04:06:14;;;;;;;4.20;2.40;;;9.60;1.00;;;;;;4990830;28;20407;-72
2023/01/02 04:08:58;;;;;;;3.97;1.83;;;9.60;1.00;;;;;;4990780;28;20393;-73
2023/01/02 04:11:28;;;;;;;2.00;1.63;;;9.50;1.00;;;;;;4990772;28;20509;-72
2023/01/02 04:13:59;;;;;;;4.35;1.92;;;9.50;1.00;;;;;;4990316;28;20477;-72
2023/01/02 04:16:29;;;;;;;2.63;1.77;;;9.50;1.00;;;;;;5001074;28;20397;-72
2023/01/02 04:19:08;;;;;;;3.70;1.90;;;9.60;1.00;;;;;;5010424;28;20384;-73
2023/01/02 04:21:36;;;;;;;4.17;2.03;;;9.70;1.00;;;;;;5010399;28;20384;-72
2023/01/02 04:24:11;;;;;;;2.90;1.77;;;9.70;1.00;;;;;;5010595;28;20388;-72
2023/01/02 04:26:49;;;;;;;4.83;2.20;;;9.80;1.00;;;;;;5014165;28;20443;-72
2023/01/02 04:29:15;;;;;;;4.07;2.47;;;9.80;1.00;;;;;;5012651;28;20763;-72
2023/01/02 04:31:49;;;;;;;3.03;2.05;;;9.80;1.00;;;;;;5014459;28;20401;-72
2023/01/02 04:34:16;;;;;;;5.10;1.90;;;9.80;1.00;;;;;;5013737;28;20763;-72
2023/01/02 04:36:42;;;;;;;3.15;1.83;;;9.80;1.00;;;;;;5014513;28;20391;-73
2023/01/02 04:39:08;;;;;;;4.43;2.00;;;9.70;1.00;;;;;;5010392;28;20756;-72
2023/01/02 04:41:36;;;;;;;1.95;1.63;;;9.70;1.00;;;;;;4994933;28;20381;-73
2023/01/02 04:44:02;;;;;;;2.60;2.33;;;9.70;1.00;;;;;;4994060;28;20452;-73
2023/01/02 04:46:28;;;;;;;3.50;1.60;;;9.70;1.00;;;;;;4994676;28;20398;-72
2023/01/02 04:48:54;;;;;;;2.50;1.57;;;9.70;1.00;;;;;;4994606;28;20386;-72
2023/01/02 04:51:21;;;;;;;3.28;1.67;;;9.80;1.00;;;;;;5008605;28;20423;-73
2023/01/02 04:53:48;;;;;;;2.10;1.40;;;9.80;1.00;;;;;;5013522;28;20385;-73
2023/01/02 04:56:14;;;;;;;2.75;1.70;;;9.80;99.90;;;;;;5014310;28;20428;-72
2023/01/02 04:58:41;;;;;;;3.20;1.80;;;9.80;99.90;;;;;;5014549;28;20887;-72
2023/01/02 05:01:10;;;;;;;4.13;1.65;;;9.80;99.90;;;;;;5014310;28;20391;-73
2023/01/02 05:03:40;;;;;;;4.80;1.58;;;9.60;1.00;;;;;;5000986;28;20391;-73
2023/01/02 05:06:06;;;;;;;3.08;1.50;;;9.60;1.00;;;;;;4994829;28;20494;-73
2023/01/02 05:08:32;;;;;;;4.15;1.98;;;9.60;1.00;;;;;;4994763;28;20517;-72
2023/01/02 05:11:03;;;;;;;2.93;1.80;;;9.70;1.00;;;;;;4994787;28;20409;-72
2023/01/02 05:13:28;;;;;;;3.20;1.80;;;9.50;1.00;;;;;;4993653;28;20505;-72
2023/01/02 05:15:55;;;;;;;3.03;1.70;;;9.50;1.00;;;;;;4994326;28;20418;-73
2023/01/02 05:18:21;;;;;;;2.33;1.50;;;9.50;1.00;;;;;;4994204;28;20489;-73
2023/01/02 05:20:46;;;;;;;5.07;2.28;;;9.40;1.00;;;;;;4994402;28;20901;-72
2023/01/02 05:25:56;;;;;;;3.42;1.80;;;9.30;1.00;;;;;;5013902;28;20430;-72
2023/01/02 05:28:21;;;;;;;4.63;1.73;;;9.30;1.00;;;;;;5004211;28;20821;-72
2023/01/02 05:30:48;;;;;;;3.30;1.90;;;9.40;1.00;;;;;;4994062;28;20402;-72
2023/01/02 05:33:14;;;;;;;3.45;2.08;;;9.40;1.00;;;;;;4993264;28;20414;-72
2023/01/02 05:35:40;;;;;;;3.27;2.00;;;9.40;1.00;;;;;;4992896;28;20501;-73
2023/01/02 05:38:05;;;;;;;2.67;1.80;;;9.40;1.00;;;;;;4993855;28;20445;-72
2023/01/02 05:40:31;;;;;;;3.00;1.60;;;9.40;1.00;;;;;;4998032;28;20475;-72
2023/01/02 05:42:58;;;;;;;3.03;1.83;;;9.40;1.00;;;;;;4997691;28;20438;-72
2023/01/02 05:45:23;;;;;;;2.67;1.42;;;9.40;1.00;;;;;;4993478;28;20756;-73
2023/01/02 05:47:49;;;;;;;3.75;1.83;;;9.40;1.00;;;;;;4993507;28;20466;-72
2023/01/02 05:50:14;;;;;;;3.47;2.17;;;9.40;1.00;;;;;;4997526;28;20440;-72
2023/01/02 05:52:40;;;;;;;3.50;1.80;;;9.50;1.00;;;;;;4997254;28;20497;-72
2023/01/02 05:55:06;;;;;;;4.30;2.10;;;9.40;1.00;;;;;;4993420;28;20476;-72
2023/01/02 05:57:31;;;;;;;2.97;1.93;;;9.40;1.00;;;;;;4993313;28;20903;-72
2023/01/02 05:59:56;;;;;;;5.32;2.30;;;9.50;1.00;;;;;;4991982;28;20409;-72
2023/01/02 06:02:22;;;;;;;3.58;2.10;;;9.40;1.00;;;;;;4995710;28;20402;-73
2023/01/02 06:04:47;;;;;;;3.53;2.30;;;9.30;1.00;;;;;;5011349;28;20497;-74
2023/01/02 06:07:13;;;;;;;6.00;3.20;;;9.50;1.00;;;;;;5012890;28;20396;-73
2023/01/02 06:09:38;;;;;;;5.40;3.20;;;9.40;1.00;;;;;;4997180;28;20390;-74
2023/01/02 06:12:04;;;;;;;4.40;2.30;;;9.30;1.00;;;;;;4993282;28;20524;-74
2023/01/02 06:14:30;;;;;;;2.80;2.53;;;9.30;1.00;;;;;;4992597;28;20975;-74
2023/01/02 06:16:55;;;;;;;4.00;2.40;;;9.30;1.00;;;;;;5012800;28;20442;-73
2023/01/02 06:19:21;;;;;;;3.70;2.30;;;9.40;1.00;;;;;;5012731;28;20384;-73
2023/01/02 06:21:46;;;;;;;3.67;2.17;;;9.40;1.00;;;;;;5012620;28;20393;-73
2023/01/02 06:24:12;;;;;;;2.60;2.40;;;9.40;1.00;;;;;;5011935;28;20404;-74
2023/01/02 06:26:37;;;;;;;3.90;2.10;;;9.40;1.00;;;;;;5012573;28;20400;-73
2023/01/02 06:29:03;;;;;;;3.63;2.60;;;9.50;1.00;;;;;;4994703;28;20454;-74
2023/01/02 06:31:29;;;;;;;2.70;2.20;;;9.40;1.00;;;;;;5010947;28;20982;-73
2023/01/02 06:33:58;;;;;;;4.03;2.43;;;9.50;1.00;;;;;;5011439;28;20421;-73
2023/01/02 06:36:27;;;;;;;4.20;2.30;;;9.40;1.00;;;;;;5012381;28;20769;-74
2023/01/02 06:38:53;;;;;;;6.97;2.90;;;9.40;1.00;;;;;;5012283;28;20389;-73
2023/01/02 06:41:18;;;;;;;3.47;2.60;;;9.40;1.00;;;;;;5012539;28;20393;-73
2023/01/02 06:43:48;;;;;;;3.88;2.50;;;9.50;1.00;;;;;;4993654;28;20414;-73
2023/01/02 06:46:17;;;;;;;3.35;2.40;;;9.40;1.00;;;;;;4992156;28;20982;-73
2023/01/02 06:48:43;;;;;;;3.65;2.25;;;9.40;1.00;;;;;;5005551;28;20409;-73
2023/01/02 06:51:11;;;;;;;5.57;2.50;;;9.40;1.00;;;;;;5011848;28;20404;-73
2023/01/02 06:53:38;;;;;;;3.50;2.50;;;9.40;1.00;;;;;;5011437;28;20397;-73
2023/01/02 06:56:05;;;;;;;4.63;2.60;;;9.40;1.00;;;;;;5012215;28;20479;-74
2023/01/02 06:58:32;;;;;;;3.67;2.55;;;9.50;1.00;;;;;;5012026;28;20508;-73
2023/01/02 07:01:03;;;;;;;4.05;2.50;;;9.40;1.00;;;;;;4999148;28;20402;-73
2023/01/02 07:03:29;;;;;;;4.65;2.50;;;9.40;1.00;;;;;;4991444;28;20965;-73
2023/01/02 07:06:03;;;;;;;4.97;2.30;;;9.40;1.00;;;;;;4992103;28;20530;-73
2023/01/02 07:08:29;;;;;;;6.40;2.35;;;9.40;1.00;;;;;;4996508;28;20773;-73
2023/01/02 07:10:55;;;;;;;7.03;2.70;;;9.50;1.00;;;;;;4992048;28;20394;-74
2023/01/02 07:13:20;;;;;;;3.97;2.70;;;9.50;1.00;;;;;;4991170;28;20410;-74
2023/01/02 07:15:45;;;;;;;6.10;3.10;;;9.50;1.00;;;;;;4991998;28;20477;-73
2023/01/02 07:18:11;;;;;;;5.25;3.10;;;9.40;99.90;;;;;;5013681;23;20438;-73
2023/01/02 07:20:37;;;;;;;4.18;3.00;;;9.40;1.00;;;;;;4991360;28;20766;-73
2023/01/02 07:23:02;;;;;;;3.10;2.40;;;9.40;99.90;;;;;;4991113;28;20401;-73
2023/01/02 07:25:28;;;;;;;3.57;2.50;;;9.50;99.90;;;;;;4991525;28;20426;-72
2023/01/02 07:27:53;;;;;;;3.90;2.60;;;9.60;99.90;;;;;;4991783;28;20494;-73
2023/01/02 07:30:19;;;;;;;4.75;2.80;;;9.50;99.90;;;;;;4990223;28;20481;-73
2023/01/02 07:32:44;;;;;;;5.47;2.77;;;9.50;99.90;;;;;;4971538;28;20827;-73
2023/01/02 07:35:10;;;;;;;4.30;2.60;;;9.50;99.90;;;;;;4972176;28;20396;-73
2023/01/02 07:37:35;;;;;;;2.97;2.13;;;9.50;99.90;;;;;;4972130;28;20481;-73
2023/01/02 07:40:01;;;;;;;4.20;2.70;;;9.50;99.90;;;;;;4972144;28;20388;-73
2023/01/02 07:42:27;;;;;;;4.75;2.60;;;9.50;99.90;;;;;;4970763;28;20418;-73
2023/01/02 07:44:52;;;;;;;4.57;2.53;;;9.40;1.00;;;;;;4971551;28;20818;-72
2023/01/02 07:47:18;;;;;;;3.15;2.75;;;9.40;1.00;;;;;;4971975;28;20404;-72
2023/01/02 07:49:43;;;;;;;3.80;3.30;;;9.40;1.00;;;;;;4971957;28;20403;-72
2023/01/02 07:52:09;;;;;;;3.20;2.63;;;9.30;1.00;;;;;;4971775;28;20502;-72
2023/01/02 07:54:35;;;;;;;3.20;2.90;;;9.30;1.00;;;;;;4979401;28;20402;-72
2023/01/02 07:57:01;;;;;;;3.50;2.60;;;9.40;1.00;;;;;;4970592;28;20396;-72
2023/01/02 07:59:26;;;;;;;6.60;3.60;;;9.40;1.00;;;;;;4970988;28;20395;-72
2023/01/02 08:01:52;;;;;;;4.30;2.73;;;9.40;1.00;;;;;;4969000;28;20790;-73
2023/01/02 08:04:17;;;;;;;5.70;3.07;;;9.40;1.00;;;;;;4962775;28;20859;-72
2023/01/02 08:06:43;;;;;;;3.60;2.57;;;9.40;1.00;;;;;;4971907;28;20435;-73
2023/01/02 08:09:08;;;;;;;3.78;2.20;;;9.50;1.00;;;;;;4971792;28;20904;-72
2023/01/02 08:11:34;;;;;;;3.75;2.83;;;9.50;1.00;;;;;;4971552;28;20416;-72
2023/01/02 08:14:00;;;;;;;4.75;2.60;;;9.50;1.00;;;;;;4971076;28;20413;-72
2023/01/02 08:16:25;;;;;;;4.53;2.77;;;9.50;1.00;;;;;;4975378;28;20916;-73
2023/01/02 08:18:54;;;;;;;4.57;2.97;;;9.50;1.00;;;;;;4991122;28;20889;-73
2023/01/02 08:21:20;;;;;;;4.55;2.83;;;9.40;1.00;;;;;;4989704;28;20417;-73
2023/01/02 08:23:45;;;;;;;6.75;2.80;;;9.50;1.00;;;;;;4976444;28;20424;-73
2023/01/02 08:26:11;;;;;;;2.87;2.60;;;9.60;99.90;;;;;;4970303;28;20431;-73
2023/01/02 08:28:38;;;;;;;3.40;2.55;;;9.60;99.90;;;;;;4971631;28;20508;-73
2023/01/02 08:31:16;;;;;;;4.45;2.95;;;9.50;99.90;;;;;;4971512;28;20467;-73
2023/01/02 08:33:42;;;;;;;4.05;2.80;;;9.70;99.90;;;;;;4970939;28;20407;-73
2023/01/02 08:36:08;;;;;;;5.17;3.20;;;9.60;99.90;;;;;;4971314;28;20754;-73
2023/01/02 08:38:34;;;;;;;4.00;2.90;;;9.60;99.90;;;;;;4985975;28;20396;-72
2023/01/02 08:40:59;;;;;;;4.72;3.17;;;9.70;99.90;;;;;;4971430;28;20898;-72
2023/01/02 08:43:26;;;;;;;5.03;3.78;;;9.80;99.90;;;;;;4970717;28;20384;-73
2023/01/02 08:45:52;;;;;;;4.32;3.13;;;9.70;99.90;;;;;;4971550;28;20393;-73
2023/01/02 08:48:18;;;;;;;4.90;2.90;;;9.70;99.90;;;;;;4972717;28;20423;-73
2023/01/02 08:50:43;;;;;;;3.17;2.80;;;9.80;99.90;;;;;;4973034;28;20450;-73
2023/01/02 08:53:09;;;;;;;4.88;2.92;;;9.80;99.90;;;;;;4970514;28;20515;-73
2023/01/02 08:55:34;;;;;;;5.60;3.70;;;9.90;99.90;;;;;;4976570;28;20404;-73
2023/01/02 08:57:59;;;;;;;7.30;3.60;;;10.00;99.90;;;;;;4971287;28;20380;-73
2023/01/02 09:00:25;;;;;;;7.28;3.50;;;10.10;1.00;;;;;;4971305;28;20384;-73
2023/01/02 09:02:50;;;;;;;6.97;3.43;;;10.20;1.00;;;;;;4970589;28;20479;-73
2023/01/02 09:05:16;;;;;;;6.00;3.70;;;10.30;99.90;;;;;;4984778;28;20907;-73
2023/01/02 09:07:42;;;;;;;5.15;3.53;;;10.20;99.90;;;;;;4990575;28;20394;-72
2023/01/02 09:10:08;;;;;;;4.88;3.40;;;10.30;99.90;;;;;;4951741;28;20967;-72
2023/01/02 09:12:35;;;;;;;6.70;3.20;;;10.40;63.80;;;;;;4962920;28;20786;-73
2023/01/02 09:15:01;;;;;;;4.45;3.20;;;10.30;99.10;;;;;;4974900;28;20395;-73
2023/01/02 09:17:26;;;;;;;4.45;3.10;;;10.40;1.00;;;;;;4974568;28;20403;-73
2023/01/02 09:19:52;;;;;;;6.97;3.50;;;10.50;99.90;;;;;;4974596;28;20487;-73
2023/01/02 09:22:17;;;;;;;5.00;3.10;;;10.60;1.00;;;;;;4976957;28;20402;-73
2023/01/02 09:24:43;;;;;;;4.35;2.67;;;10.60;99.90;;;;;;4991701;28;20449;-73
2023/01/02 09:27:08;;;;;;;3.90;3.17;;;10.80;99.90;;;;;;4993730;28;20382;-72
2023/01/02 09:29:34;;;;;;;4.70;3.00;;;10.80;99.90;;;;;;4993978;28;20390;-72
2023/01/02 09:31:59;;;;;;;4.40;2.90;;;10.90;99.90;;;;;;4974860;28;20408;-73
2023/01/02 09:34:25;;;;;;;6.35;3.30;;;11.00;1.00;;;;;;4960389;28;20400;-76
2023/01/02 09:36:50;;;;;;;4.60;2.70;;;11.00;99.90;;;;;;4974106;28;20419;-74
2023/01/02 09:39:16;;;;;;;5.93;3.50;;;11.10;1.00;;;;;;4974404;28;20403;-74
2023/01/02 09:41:57;;;;;;;4.60;3.20;;;11.20;99.90;;;;;;4971990;28;20492;-73
2023/01/02 09:44:38;;;;;;;3.88;2.92;;;11.20;99.90;;;;;;4973433;28;20411;-73
2023/01/02 09:47:09;;;;;;;6.53;3.53;;;11.30;99.90;;;;;;4968390;28;20934;-74
2023/01/02 09:49:53;;;;;;;4.13;2.63;;;11.30;99.90;;;;;;4970432;28;20388;-74
2023/01/02 09:52:27;;;;;;;7.43;2.90;;;11.30;99.90;;;;;;4973909;28;20868;-74
2023/01/02 09:54:53;;;;;;;4.37;2.50;;;11.60;1.00;;;;;;4983581;28;20448;-73
2023/01/02 09:57:26;;;;;;;5.40;2.10;;;12.20;99.90;;;;;;4973784;28;20396;-73
2023/01/02 10:00:04;;;;;;;7.63;2.85;;;13.20;1.00;;;;;;4985870;28;20407;-74
2023/01/02 10:02:37;;;;;;;2.72;2.00;;;13.60;1.00;;;;;;4992482;28;20966;-75
2023/01/02 10:05:32;;;;;;;4.20;1.80;;;13.70;1.00;;;;;;4993454;28;20401;-75
2023/01/02 10:08:24;;;;;;;5.05;1.70;;;14.60;99.90;;;;;;4969366;28;20388;-74
2023/01/02 10:11:01;;;;;;;6.00;1.70;;;15.20;99.90;;;;;;4978453;28;20404;-75
2023/01/02 10:13:42;;;;;;;4.13;1.70;;;15.50;99.90;;;;;;4973063;28;20934;-74
2023/01/02 10:16:15;;;;;;;6.00;1.90;;;15.80;99.90;;;;;;4954339;28;20386;-75
2023/01/02 10:18:44;;;;;;;6.03;2.25;;;15.90;99.90;;;;;;4954333;28;20402;-74
2023/01/02 10:21:15;;;;;;;6.18;2.20;;;15.90;99.90;;;;;;4953685;28;20884;-75
2023/01/02 10:24:10;;;;;;;4.72;2.22;;;15.80;99.90;;;;;;4955443;28;20428;-76
2023/01/02 10:26:38;;;;;;;7.00;2.22;;;15.80;99.90;;;;;;4991695;28;20433;-75
2023/01/02 10:29:16;;;;;;;6.72;2.15;;;15.80;99.90;;;;;;4973474;28;20755;-74
2023/01/02 10:31:47;;;;;;;7.57;2.23;;;15.80;99.90;;;;;;4971776;28;20420;-75
2023/01/02 10:34:22;;;;;;;8.43;2.00;;;15.80;99.90;;;;;;4968852;28;20929;-75
2023/01/02 10:36:48;;;;;;;5.90;2.35;;;15.90;99.90;;;;;;4970656;28;20480;-75
2023/01/02 10:39:34;;;;;;;4.97;1.60;;;15.90;99.90;;;;;;4962024;28;20393;-75
2023/01/02 10:42:00;;;;;;;7.43;1.75;;;15.90;99.90;;;;;;4971351;28;20532;-74
2023/01/02 10:44:27;;;;;;;7.53;2.17;;;15.90;99.90;;;;;;4973853;28;20857;-76
2023/01/02 10:46:54;;;;;;;9.27;2.00;;;15.90;99.90;;;;;;4992590;28;20392;-74
2023/01/02 10:49:22;;;;;;;8.20;2.05;;;15.90;99.90;;;;;;4992500;28;20398;-75
2023/01/02 10:51:55;;;;;;;4.90;2.17;;;15.90;99.90;;;;;;4992381;28;20402;-75
2023/01/02 10:54:21;;;;;;;8.55;3.03;;;16.00;99.90;;;;;;4980609;28;20457;-75
2023/01/02 10:56:49;;;;;;;5.17;2.10;;;15.90;99.90;;;;;;4969170;28;20400;-73
2023/01/02 10:59:21;;;;;;;8.43;2.50;;;16.00;99.90;;;;;;4972971;28;20392;-72
2023/01/02 11:01:54;;;;;;;4.90;2.60;;;15.90;99.90;;;;;;4972750;28;20428;-74
2023/01/02 11:04:23;;;;;;;4.50;2.00;;;16.00;99.90;;;;;;4972069;28;20458;-74
2023/01/02 11:06:52;;;;;;;6.38;2.28;;;15.90;99.90;;;;;;4973997;28;20400;-72
2023/01/02 11:09:19;;;;;;;7.03;2.00;;;16.20;99.90;;;;;;4966520;28;20441;-73
2023/01/02 11:11:52;;;;;;;6.68;1.92;;;16.20;99.90;;;;;;4972352;28;20416;-73
2023/01/02 11:14:31;;;;;;;6.07;2.17;;;16.20;99.90;;;;;;4960376;28;20812;-73
2023/01/02 11:17:03;;;;;;;10.27;3.30;;;16.20;99.90;;;;;;4967468;28;20402;-74
2023/01/02 11:19:29;;;;;;;7.65;2.28;;;16.20;99.90;;;;;;4956928;28;20839;-74
2023/01/02 11:21:55;;;;;;;4.72;2.00;;;16.50;99.90;;;;;;4982241;28;20404;-74
2023/01/02 11:24:25;;;;;;;8.90;2.30;;;16.60;99.90;;;;;;4970914;28;20766;-74
2023/01/02 11:26:52;;;;;;;6.20;2.63;;;16.60;99.90;;;;;;4981425;28;20430;-73
2023/01/02 11:29:31;;;;;;;7.38;2.47;;;16.90;99.90;;;;;;4955720;28;20394;-73
2023/01/02 11:31:59;;;;;;;5.30;2.03;;;16.80;99.90;;;;;;4971751;28;20911;-74
2023/01/02 11:34:36;;;;;;;13.53;2.33;;;16.60;99.90;;;;;;4970734;28;20388;-74
2023/01/02 11:37:11;;;;;;;8.35;2.40;;;16.60;99.90;;;;;;4970889;28;20406;-75
2023/01/02 11:39:38;;;;;;;7.05;2.40;;;16.50;99.90;;;;;;4965025;28;20432;-75
2023/01/02 11:45:08;;;;;;;8.30;2.00;;;16.60;99.90;;;;;;4969169;28;20782;-73
2023/01/02 11:47:47;;;;;;;8.10;2.40;;;16.60;99.90;;;;;;4971977;28;20867;-74
2023/01/02 11:50:18;;;;;;;4.78;2.30;;;16.50;99.90;;;;;;4973243;28;20412;-74
2023/01/02 11:52:53;;;;;;;5.88;2.95;;;16.60;99.90;;;;;;4970519;28;20424;-75
2023/01/02 11:55:31;;;;;;;8.40;2.75;;;16.70;99.90;;;;;;4960945;28;20764;-74
2023/01/02 11:58:19;;;;;;;4.95;2.10;;;17.00;99.90;;;;;;4971032;28;20471;-75
2023/01/02 12:00:51;;;;;;;6.07;2.15;;;17.40;99.90;;;;;;4973739;28;20984;-74
2023/01/02 12:03:22;;;;;;;7.22;2.60;;;17.60;99.90;;;;;;4970601;28;20392;-75
2023/01/02 12:06:02;;;;;;;6.28;2.20;;;17.30;99.90;;;;;;4971708;28;20406;-74
2023/01/02 12:09:02;;;;;;;8.57;2.28;;;17.30;99.90;;;;;;4970400;28;20408;-75
2023/01/02 12:11:40;;;;;;;6.75;2.60;;;17.30;99.90;;;;;;4966582;28;21062;-75
2023/01/02 12:14:20;;;;;;;7.10;2.05;;;17.00;99.90;;;;;;4970657;28;20396;-74
2023/01/02 12:17:13;;;;;;;8.48;2.10;;;16.90;99.90;;;;;;4969913;28;20400;-75
2023/01/02 12:19:38;;;;;;;6.25;2.58;;;16.90;99.90;;;;;;4966947;28;20407;-75
2023/01/02 12:22:22;;;;;;;7.13;2.97;;;17.20;99.90;;;;;;4971205;28;20392;-74
2023/01/02 12:24:56;;;;;;;7.38;1.90;;;17.10;99.90;;;;;;4970525;28;20446;-75
2023/01/02 12:27:46;;;;;;;6.13;2.10;;;17.10;99.90;;;;;;4968021;28;20483;-75
2023/01/02 12:30:16;;;;;;;6.32;2.60;;;17.10;99.90;;;;;;4967850;28;20392;-75
2023/01/02 12:33:00;;;;;;;4.85;2.20;;;17.10;99.90;;;;;;4961498;28;20830;-75
2023/01/02 12:35:41;;;;;;;8.75;2.40;;;17.10;99.90;;;;;;4971772;28;20894;-77
2023/01/02 12:38:08;;;;;;;7.57;2.42;;;17.00;99.90;;;;;;4969692;28;20388;-75
2023/01/02 12:40:46;;;;;;;5.65;2.60;;;17.00;99.90;;;;;;4971101;28;20748;-76
2023/01/02 12:43:43;;;;;;;8.07;2.70;;;16.80;99.90;;;;;;4970322;28;20403;-75
2023/01/02 12:46:26;;;;;;;6.10;2.40;;;16.70;99.90;;;;;;4971358;28;20910;-74
2023/01/02 12:49:07;;;;;;;7.60;2.70;;;16.70;99.90;;;;;;4973035;28;20478;-75
2023/01/02 12:51:53;;;;;;;7.05;2.33;;;16.50;99.90;;;;;;4974909;28;20392;-75
2023/01/02 12:54:46;;;;;;;9.27;2.55;;;16.50;99.90;;;;;;4970222;28;20455;-74
2023/01/02 12:57:53;;;;;;;6.77;2.60;;;16.40;99.90;;;;;;4953733;28;20488;-74
2023/01/02 13:00:38;;;;;;;6.22;2.55;;;16.30;99.90;;;;;;4974154;28;20471;-75
2023/01/02 13:03:25;;;;;;;6.80;2.80;;;16.30;99.90;;;;;;4970288;28;20410;-75
2023/01/02 13:05:54;;;;;;;8.43;2.60;;;16.20;99.90;;;;;;4994300;28;20764;-76
2023/01/02 13:08:24;;;;;;;3.37;1.90;;;16.20;99.90;;;;;;4989390;28;20396;-76
2023/01/02 13:10:50;;;;;;;7.55;2.30;;;16.20;99.90;;;;;;4974969;28;20399;-76
2023/01/02 13:13:17;;;;;;;9.33;2.63;;;16.10;99.90;;;;;;4980724;28;20492;-76
2023/01/02 13:15:48;;;;;;;7.00;2.70;;;16.10;99.90;;;;;;4994062;28;20402;-76
2023/01/02 13:18:30;;;;;;;8.88;2.55;;;16.10;99.90;;;;;;5025937;23;20954;-71
2023/01/02 13:21:15;;;;;;;7.20;2.35;;;16.00;99.90;;;;;;5013669;28;20480;-71
2023/01/02 13:23:47;;;;;;;7.70;2.33;;;16.00;99.90;;;;;;5012944;28;20392;-72